createdAt,value
2018-07-19T00:00:48.955Z,83.63
2018-07-19T00:01:48.960Z,82.96
2018-07-19T00:02:48.951Z,83.25
2018-07-19T00:03:48.952Z,83.73
2018-07-19T00:04:48.949Z,83.63
2018-07-19T00:05:48.961Z,83.15
2018-07-19T00:06:48.947Z,83.34
2018-07-19T00:07:48.945Z,83.25
2018-07-19T00:08:48.949Z,84.30
2018-07-19T00:09:48.942Z,83.63
2018-07-19T00:10:48.942Z,84.11
2018-07-19T00:11:48.941Z,83.92
2018-07-19T00:12:48.940Z,83.63
2018-07-19T00:13:48.941Z,84.21
2018-07-19T00:14:48.937Z,83.92
2018-07-19T00:15:48.940Z,84.01
2018-07-19T00:16:48.941Z,84.21
2018-07-19T00:17:48.929Z,83.83
2018-07-19T00:18:48.943Z,84.30
2018-07-19T00:19:48.928Z,83.83
2018-07-19T00:20:48.935Z,84.21
2018-07-19T00:21:48.932Z,84.01
2018-07-19T00:22:48.919Z,84.11
2018-07-19T00:23:48.919Z,83.44
2018-07-19T00:24:48.922Z,83.63
2018-07-19T00:25:48.919Z,83.44
2018-07-19T00:26:48.918Z,84.01
2018-07-19T00:27:48.908Z,83.83
2018-07-19T00:28:48.914Z,84.30
2018-07-19T00:29:48.911Z,84.21
2018-07-19T00:30:48.908Z,85.03
2018-07-19T00:31:48.910Z,85.61
2018-07-19T00:32:48.905Z,86.28
2018-07-19T00:33:48.966Z,86.76
2018-07-19T00:34:48.903Z,86.57
2018-07-19T00:35:48.905Z,86.91
2018-07-19T00:36:48.906Z,86.62
2018-07-19T00:37:48.903Z,87.49
2018-07-19T00:38:48.895Z,87.39
2018-07-19T00:39:48.900Z,88.16
2018-07-19T00:40:48.894Z,89.02
2018-07-19T00:41:48.895Z,88.93
2018-07-19T00:42:48.893Z,89.22
2018-07-19T00:43:49.908Z,89.22
2018-07-19T00:44:48.889Z,89.31
2018-07-19T00:45:48.887Z,89.31
2018-07-19T00:46:48.892Z,89.31
2018-07-19T00:47:48.882Z,89.89
2018-07-19T00:48:48.888Z,90.42
2018-07-19T00:49:48.879Z,90.32
2018-07-19T00:50:48.881Z,90.32
2018-07-19T00:51:48.873Z,90.52
2018-07-19T00:52:48.871Z,90.42
2018-07-19T00:53:48.876Z,90.22
2018-07-19T00:54:48.867Z,90.42
2018-07-19T00:55:48.870Z,90.52
2018-07-19T00:56:48.871Z,90.22
2018-07-19T00:57:48.865Z,90.32
2018-07-19T00:58:48.864Z,90.32
2018-07-19T00:59:48.866Z,90.03
2018-07-19T01:00:48.856Z,90.90
2018-07-19T01:01:48.858Z,91.19
2018-07-19T01:02:48.851Z,91.66
2018-07-19T01:03:48.858Z,91.42
2018-07-19T01:04:48.848Z,91.57
2018-07-19T01:05:48.853Z,91.24
2018-07-19T01:06:48.845Z,91.38
2018-07-19T01:07:48.844Z,92.14
2018-07-19T01:08:48.843Z,92.00
2018-07-19T01:09:48.839Z,91.72
2018-07-19T01:10:48.837Z,91.33
2018-07-19T01:11:48.835Z,91.14
2018-07-19T01:12:48.837Z,91.33
2018-07-19T01:13:48.831Z,91.33
2018-07-19T01:14:48.832Z,91.62
2018-07-19T01:15:48.828Z,91.42
2018-07-19T01:16:48.838Z,91.52
2018-07-19T01:17:48.826Z,91.62
2018-07-19T01:18:48.824Z,91.42
2018-07-19T01:19:48.818Z,90.85
2018-07-19T01:20:48.815Z,90.47
2018-07-19T01:21:48.815Z,91.14
2018-07-19T01:22:48.814Z,90.95
2018-07-19T01:23:48.811Z,90.95
2018-07-19T01:24:48.811Z,90.75
2018-07-19T01:25:48.808Z,91.24
2018-07-19T01:26:48.807Z,90.75
2018-07-19T01:27:48.800Z,91.14
2018-07-19T01:28:48.798Z,90.66
2018-07-19T01:29:48.806Z,90.66
2018-07-19T01:30:48.794Z,90.47
2018-07-19T02:04:20.630Z,85.71
2018-07-19T02:05:20.578Z,84.75
2018-07-19T02:07:13.554Z,84.08
2018-07-19T02:08:13.524Z,84.27
2018-07-19T02:10:06.524Z,84.41
2018-07-19T02:11:06.516Z,84.56
2018-07-19T02:12:59.440Z,84.66
2018-07-19T02:13:59.416Z,84.75
2018-07-19T02:15:52.376Z,83.89
2018-07-19T02:16:52.354Z,84.18
2018-07-19T02:18:45.340Z,85.24
2018-07-19T02:19:45.333Z,85.71
2018-07-19T02:21:38.386Z,87.01
2018-07-19T02:22:38.360Z,86.58
2018-07-19T02:24:31.372Z,86.92
2018-07-19T02:25:31.357Z,87.59
2018-07-19T02:27:24.342Z,87.98
2018-07-19T02:28:24.318Z,88.45
2018-07-19T02:30:17.360Z,88.74
2018-07-19T02:31:17.362Z,89.22
2018-07-19T02:33:10.298Z,89.70
2018-07-19T02:34:10.274Z,89.89
2018-07-19T02:36:03.185Z,89.32
2018-07-19T02:37:03.165Z,88.26
2018-07-19T02:38:56.076Z,88.65
2018-07-19T02:39:56.066Z,88.74
2018-07-19T02:41:48.992Z,89.12
2018-07-19T02:42:48.975Z,89.03
2018-07-19T02:44:41.936Z,89.94
2018-07-19T02:45:41.923Z,89.22
2018-07-19T02:47:34.884Z,89.12
2018-07-19T02:48:34.858Z,89.75
2018-07-19T02:50:27.807Z,88.55
2018-07-19T02:51:27.787Z,88.93
2018-07-19T02:53:20.701Z,88.45
2018-07-19T02:54:20.690Z,88.07
2018-07-19T02:56:13.592Z,87.88
2018-07-19T02:57:13.585Z,86.82
2018-07-19T02:59:06.539Z,86.92
2018-07-19T03:00:06.521Z,85.58
2018-07-19T03:01:59.471Z,85.28
2018-07-19T03:02:59.399Z,85.62
2018-07-19T03:04:52.370Z,85.42
2018-07-19T03:05:52.359Z,85.48
2018-07-19T03:07:45.362Z,85.48
2018-07-19T03:08:45.284Z,85.33
2018-07-19T03:10:38.210Z,84.08
2018-07-19T03:11:38.199Z,84.66
2018-07-19T03:13:31.125Z,84.66
2018-07-19T03:14:31.105Z,85.14
2018-07-19T03:16:24.053Z,85.24
2018-07-19T03:17:24.037Z,84.85
2018-07-19T03:19:17.052Z,84.95
2018-07-19T03:20:17.032Z,84.85
2018-07-19T03:22:10.077Z,84.66
2018-07-19T03:23:10.039Z,84.75
2018-07-19T03:25:02.993Z,84.66
2018-07-19T03:26:02.973Z,84.75
2018-07-19T03:27:55.876Z,84.56
2018-07-19T03:28:55.856Z,85.42
2018-07-19T03:30:48.811Z,85.52
2018-07-19T03:31:48.769Z,84.85
2018-07-19T03:33:41.721Z,85.14
2018-07-19T03:34:41.709Z,85.28
2018-07-19T03:36:34.593Z,85.28
2018-07-19T03:37:34.584Z,85.52
2018-07-19T03:39:28.526Z,85.71
2018-07-19T03:40:28.506Z,85.14
2018-07-19T03:42:21.437Z,86.34
2018-07-19T03:43:21.413Z,86.34
2018-07-19T03:45:14.372Z,87.11
2018-07-19T03:46:14.363Z,88.65
2018-07-19T03:48:07.266Z,89.37
2018-07-19T03:49:07.288Z,90.23
2018-07-19T03:51:00.225Z,91.38
2018-07-19T03:52:00.206Z,91.72
2018-07-19T03:53:53.116Z,92.30
2018-07-19T03:54:53.092Z,92.87
2018-07-19T03:56:46.067Z,92.77
2018-07-19T03:57:46.056Z,92.77
2018-07-19T03:59:39.057Z,92.39
2018-07-19T04:00:39.032Z,92.44
2018-07-19T04:02:31.974Z,92.49
2018-07-19T04:03:31.943Z,92.58
2018-07-19T04:05:24.864Z,93.35
2018-07-19T04:06:24.857Z,93.16
2018-07-19T04:08:17.787Z,93.26
2018-07-19T04:09:17.778Z,93.44
2018-07-19T04:11:10.746Z,93.16
2018-07-19T04:12:10.729Z,93.30
2018-07-19T04:14:03.760Z,92.87
2018-07-19T04:15:03.728Z,93.16
2018-07-19T04:16:56.653Z,93.16
2018-07-19T04:17:56.633Z,93.49
2018-07-19T04:19:49.627Z,92.54
2018-07-19T04:20:49.608Z,92.44
2018-07-19T04:22:42.540Z,92.72
2018-07-19T04:23:42.520Z,92.05
2018-07-19T04:25:35.527Z,91.48
2018-07-19T04:26:35.517Z,92.05
2018-07-19T04:28:29.469Z,92.10
2018-07-19T04:29:29.450Z,92.05
2018-07-19T04:30:29.443Z,92.29
2018-07-19T04:31:29.441Z,91.72
2018-07-19T04:32:29.442Z,92.68
2018-07-19T04:33:29.436Z,92.19
2018-07-19T04:34:29.441Z,91.81
2018-07-19T04:35:29.440Z,92.39
2018-07-19T04:36:29.431Z,92.00
2018-07-19T04:37:29.434Z,91.24
2018-07-19T04:38:29.428Z,91.72
2018-07-19T04:39:29.425Z,90.95
2018-07-19T04:40:29.426Z,90.47
2018-07-19T04:41:29.423Z,91.28
2018-07-19T04:42:29.427Z,90.52
2018-07-19T04:43:29.420Z,90.42
2018-07-19T04:44:29.421Z,90.70
2018-07-19T04:45:29.419Z,90.32
2018-07-19T04:46:29.419Z,89.55
2018-07-19T04:47:29.416Z,88.69
2018-07-19T04:48:29.413Z,88.83
2018-07-19T04:49:29.412Z,87.49
2018-07-19T04:50:29.413Z,87.96
2018-07-19T04:51:29.406Z,87.68
2018-07-19T04:52:29.411Z,87.49
2018-07-19T04:53:29.403Z,87.01
2018-07-19T04:54:29.466Z,87.15
2018-07-19T04:55:29.458Z,87.43
2018-07-19T04:56:29.405Z,88.20
2018-07-19T04:57:29.447Z,87.53
2018-07-19T04:58:29.398Z,87.05
2018-07-19T04:59:29.399Z,85.61
2018-07-19T05:00:29.398Z,85.32
2018-07-19T05:01:29.402Z,85.22
2018-07-19T05:02:29.392Z,84.74
2018-07-19T05:03:29.391Z,84.94
2018-07-19T05:04:29.393Z,84.30
2018-07-19T05:05:29.391Z,85.46
2018-07-19T05:06:29.388Z,83.78
2018-07-19T05:07:29.388Z,85.07
2018-07-19T05:08:29.396Z,84.11
2018-07-19T05:09:29.390Z,83.69
2018-07-19T05:10:29.395Z,84.45
2018-07-19T05:11:29.395Z,84.59
2018-07-19T05:12:29.389Z,84.50
2018-07-19T05:13:29.385Z,84.01
2018-07-19T05:14:29.390Z,83.92
2018-07-19T05:15:29.385Z,83.15
2018-07-19T05:16:29.386Z,84.01
2018-07-19T05:17:29.383Z,83.73
2018-07-19T05:18:29.384Z,84.50
2018-07-19T05:19:29.380Z,84.21
2018-07-19T05:20:29.381Z,84.98
2018-07-19T05:21:29.382Z,85.17
2018-07-19T05:22:29.382Z,84.30
2018-07-19T05:23:29.381Z,84.59
2018-07-19T05:24:29.377Z,83.73
2018-07-19T05:25:29.379Z,83.63
2018-07-19T05:26:29.382Z,84.98
2018-07-19T05:27:29.377Z,83.73
2018-07-19T05:28:29.377Z,83.53
2018-07-19T05:29:29.381Z,83.83
2018-07-19T05:30:29.375Z,85.46
2018-07-19T05:31:29.377Z,84.11
2018-07-19T05:32:29.376Z,83.63
2018-07-19T05:33:29.376Z,83.44
2018-07-19T05:34:29.404Z,83.92
2018-07-19T05:35:29.382Z,83.44
2018-07-19T05:36:29.374Z,82.48
2018-07-19T05:37:29.377Z,83.63
2018-07-19T05:38:29.379Z,83.44
2018-07-19T05:39:29.376Z,82.71
2018-07-19T05:40:29.419Z,83.29
2018-07-19T05:41:29.383Z,82.76
2018-07-19T05:42:29.410Z,83.06
2018-07-19T05:43:29.381Z,82.86
2018-07-19T05:44:29.435Z,83.48
2018-07-19T05:45:29.440Z,83.06
2018-07-19T05:46:29.375Z,83.09
2018-07-19T05:47:29.380Z,82.61
2018-07-19T05:48:29.380Z,83.67
2018-07-19T05:49:29.377Z,83.15
2018-07-19T05:50:29.377Z,83.25
2018-07-19T05:51:29.376Z,83.09
2018-07-19T05:52:29.380Z,82.90
2018-07-19T05:53:29.384Z,83.09
2018-07-19T05:54:29.379Z,83.19
2018-07-19T05:55:29.378Z,83.39
2018-07-19T05:56:29.378Z,83.29
2018-07-19T05:57:29.378Z,83.19
2018-07-19T05:58:29.384Z,82.23
2018-07-19T05:59:29.384Z,82.52
2018-07-19T06:00:29.383Z,82.04
2018-07-19T06:01:29.386Z,82.71
2018-07-19T06:02:29.380Z,82.23
2018-07-19T06:03:29.387Z,82.23
2018-07-19T06:04:29.384Z,82.32
2018-07-19T06:05:29.381Z,82.04
2018-07-19T06:06:29.382Z,82.14
2018-07-19T06:07:29.383Z,81.94
2018-07-19T06:08:29.381Z,82.52
2018-07-19T06:09:29.407Z,82.42
2018-07-19T06:10:29.386Z,82.81
2018-07-19T06:11:29.392Z,82.42
2018-07-19T06:12:29.387Z,82.75
2018-07-19T06:13:29.393Z,83.14
2018-07-19T06:14:29.392Z,83.14
2018-07-19T06:15:29.392Z,82.27
2018-07-19T06:16:29.392Z,82.94
2018-07-19T06:17:29.390Z,82.85
2018-07-19T06:18:29.444Z,81.70
2018-07-19T06:19:29.394Z,82.75
2018-07-19T06:20:29.396Z,82.08
2018-07-19T06:21:29.397Z,82.31
2018-07-19T06:22:29.401Z,82.50
2018-07-19T06:23:29.395Z,81.63
2018-07-19T06:24:29.396Z,82.98
2018-07-19T06:25:29.396Z,82.50
2018-07-19T06:26:29.407Z,81.48
2018-07-19T06:27:29.408Z,81.63
2018-07-19T06:28:29.401Z,81.54
2018-07-19T06:29:29.400Z,81.58
2018-07-19T06:30:29.404Z,82.16
2018-07-19T06:31:29.479Z,80.29
2018-07-19T06:32:29.412Z,81.25
2018-07-19T06:33:29.414Z,81.48
2018-07-19T06:34:29.414Z,81.35
2018-07-19T06:35:29.409Z,81.29
2018-07-19T06:36:29.411Z,82.93
2018-07-19T06:37:29.416Z,81.04
2018-07-19T06:38:29.412Z,78.69
2018-07-19T06:39:29.419Z,80.85
2018-07-19T06:40:29.417Z,78.73
2018-07-19T06:41:29.420Z,80.76
2018-07-19T06:42:29.423Z,79.50
2018-07-19T06:43:29.428Z,80.27
2018-07-19T06:44:29.429Z,79.69
2018-07-19T06:45:29.431Z,79.35
2018-07-19T06:46:29.430Z,80.26
2018-07-19T06:47:29.432Z,78.42
2018-07-19T06:48:29.442Z,78.33
2018-07-19T06:49:29.474Z,76.75
2018-07-19T06:50:29.444Z,77.67
2018-07-19T06:51:29.441Z,77.48
2018-07-19T06:52:29.446Z,77.58
2018-07-19T06:53:29.444Z,77.90
2018-07-19T06:54:29.444Z,77.03
2018-07-19T06:55:29.444Z,76.84
2018-07-19T06:56:29.444Z,76.68
2018-07-19T06:57:29.460Z,75.82
2018-07-19T06:58:29.454Z,76.53
2018-07-19T06:59:29.458Z,76.01
2018-07-19T07:00:29.460Z,76.20
2018-07-19T07:01:29.462Z,76.92
2018-07-19T07:02:29.463Z,76.72
2018-07-19T07:03:29.473Z,76.18
2018-07-19T07:04:29.463Z,76.09
2018-07-19T07:05:29.470Z,74.38
2018-07-19T07:06:29.475Z,74.06
2018-07-19T07:07:29.476Z,74.00
2018-07-19T07:08:29.476Z,73.38
2018-07-19T07:09:29.477Z,73.80
2018-07-19T07:10:29.522Z,72.45
2018-07-19T07:11:29.487Z,72.30
2018-07-19T07:12:29.489Z,71.91
2018-07-19T07:13:29.487Z,70.59
2018-07-19T07:14:29.496Z,69.43
2018-07-19T07:15:29.501Z,70.40
2018-07-19T07:16:29.505Z,70.50
2018-07-19T07:17:29.506Z,70.62
2018-07-19T07:18:29.505Z,70.04
2018-07-19T07:19:29.513Z,69.31
2018-07-19T07:20:29.519Z,68.59
2018-07-19T07:21:29.526Z,67.27
2018-07-19T07:22:29.533Z,68.33
2018-07-19T07:23:29.544Z,68.02
2018-07-19T07:24:29.545Z,67.34
2018-07-19T07:25:29.553Z,67.34
2018-07-19T07:26:29.565Z,67.40
2018-07-19T07:27:29.572Z,67.27
2018-07-19T07:28:29.581Z,67.37
2018-07-19T07:29:29.587Z,66.75
2018-07-19T07:30:29.607Z,67.37
2018-07-19T07:31:29.611Z,65.59
2018-07-19T07:32:29.618Z,65.01
2018-07-19T07:33:29.627Z,65.66
2018-07-19T07:34:29.645Z,66.47
2018-07-19T07:35:30.435Z,65.72
2018-07-19T07:36:29.660Z,65.20
2018-07-19T07:37:29.669Z,64.14
2018-07-19T07:38:29.682Z,63.49
2018-07-19T07:39:29.686Z,62.07
2018-07-19T07:40:29.710Z,61.19
2018-07-19T07:41:29.717Z,63.17
2018-07-19T07:42:29.737Z,63.17
2018-07-19T07:43:29.741Z,62.88
2018-07-19T07:44:29.785Z,62.52
2018-07-19T07:45:29.761Z,64.04
2018-07-19T07:46:29.782Z,60.77
2018-07-19T07:47:29.794Z,62.42
2018-07-19T07:48:29.804Z,61.29
2018-07-19T07:49:29.821Z,60.35
2018-07-19T07:50:29.832Z,61.32
2018-07-19T07:51:29.864Z,60.48
2018-07-19T07:52:29.862Z,59.57
2018-07-19T07:53:29.862Z,59.59
2018-07-19T07:54:30.047Z,57.56
2018-07-19T07:55:29.902Z,59.38
2018-07-19T07:56:29.907Z,60.61
2018-07-19T07:57:29.924Z,60.51
2018-07-19T07:58:29.937Z,61.25
2018-07-19T07:59:29.951Z,62.48
2018-07-19T08:00:29.979Z,60.71
2018-07-19T08:01:29.981Z,60.80
2018-07-19T08:02:29.992Z,60.57
2018-07-19T08:03:30.002Z,59.95
2018-07-19T08:04:30.022Z,60.54
2018-07-19T08:05:30.035Z,61.22
2018-07-19T08:06:30.051Z,59.34
2018-07-19T08:07:30.063Z,60.54
2018-07-19T08:08:30.082Z,58.65
2018-07-19T08:09:30.120Z,58.40
2018-07-19T08:10:30.113Z,58.56
2018-07-19T08:11:30.119Z,57.07
2018-07-19T08:12:30.142Z,58.53
2018-07-19T08:13:30.155Z,56.87
2018-07-19T08:14:30.163Z,56.29
2018-07-19T08:15:30.174Z,61.22
2018-07-19T08:16:30.196Z,58.87
2018-07-19T08:17:30.209Z,56.12
2018-07-19T08:18:30.230Z,56.32
2018-07-19T08:19:30.239Z,56.77
2018-07-19T08:20:30.255Z,59.21
2018-07-19T08:21:30.272Z,58.20
2018-07-19T08:22:30.285Z,59.50
2018-07-19T08:23:30.298Z,58.26
2018-07-19T08:24:30.314Z,57.49
2018-07-19T08:25:30.332Z,58.20
2018-07-19T08:26:30.345Z,57.39
2018-07-19T08:27:30.364Z,57.81
2018-07-19T08:28:30.381Z,55.86
2018-07-19T08:29:30.394Z,55.23
2018-07-19T08:30:30.406Z,55.57
2018-07-19T08:31:30.428Z,56.25
2018-07-19T08:32:30.442Z,56.45
2018-07-19T08:33:30.456Z,57.10
2018-07-19T08:34:30.473Z,57.25
2018-07-19T08:35:30.503Z,54.94
2018-07-19T08:36:30.506Z,53.14
2018-07-19T08:37:30.518Z,53.80
2018-07-19T08:38:30.543Z,54.77
2018-07-19T08:39:30.553Z,54.09
2018-07-19T08:40:30.572Z,53.31
2018-07-19T08:41:30.585Z,54.72
2018-07-19T08:42:30.603Z,54.52
2018-07-19T08:43:30.618Z,54.77
2018-07-19T08:44:30.637Z,54.68
2018-07-19T08:45:30.649Z,53.46
2018-07-19T08:46:30.670Z,53.52
2018-07-19T08:47:30.690Z,54.05
2018-07-19T08:48:30.700Z,52.90
2018-07-19T08:49:30.712Z,52.22
2018-07-19T08:50:30.733Z,53.22
2018-07-19T08:51:30.770Z,51.39
2018-07-19T08:52:30.769Z,51.43
2018-07-19T08:53:30.786Z,51.68
2018-07-19T08:54:30.823Z,52.25
2018-07-19T08:55:30.821Z,51.98
2018-07-19T08:56:30.852Z,49.16
2018-07-19T08:57:30.855Z,51.68
2018-07-19T08:58:30.870Z,50.73
2018-07-19T08:59:30.892Z,50.71
2018-07-19T09:00:30.927Z,48.43
2018-07-19T09:01:30.928Z,49.77
2018-07-19T09:02:30.953Z,50.54
2018-07-19T09:03:30.964Z,50.12
2018-07-19T09:04:30.982Z,49.75
2018-07-19T09:05:30.999Z,51.31
2018-07-19T09:06:31.025Z,54.20
2018-07-19T09:07:31.034Z,50.20
2018-07-19T09:08:31.056Z,49.85
2018-07-19T09:09:31.083Z,48.90
2018-07-19T09:10:31.107Z,49.21
2018-07-19T09:11:31.116Z,48.97
2018-07-19T09:12:31.141Z,49.24
2018-07-19T09:13:31.166Z,49.26
2018-07-19T09:14:31.175Z,50.00
2018-07-19T09:15:31.203Z,48.90
2018-07-19T09:16:31.221Z,49.71
2018-07-19T09:17:31.233Z,50.34
2018-07-19T09:18:31.256Z,50.73
2018-07-19T09:19:31.384Z,51.29
2018-07-19T09:20:31.298Z,50.17
2018-07-19T09:21:31.315Z,46.60
2018-07-19T09:22:31.337Z,49.68
2018-07-19T09:23:31.359Z,47.14
2018-07-19T09:24:31.375Z,47.50
2018-07-19T09:25:31.405Z,48.90
2018-07-19T09:26:31.449Z,46.69
2018-07-19T09:27:31.438Z,47.01
2018-07-19T09:28:31.460Z,45.67
2018-07-19T09:29:31.477Z,48.83
2018-07-19T09:30:31.487Z,49.39
2018-07-19T09:31:31.515Z,48.90
2018-07-19T09:32:31.544Z,50.46
2018-07-19T09:33:31.562Z,52.68
2018-07-19T09:34:31.575Z,51.34
2018-07-19T09:35:31.594Z,51.58
2018-07-19T09:36:31.612Z,50.73
2018-07-19T09:37:31.629Z,50.82
2018-07-19T09:38:31.722Z,49.58
2018-07-19T09:39:31.670Z,50.29
2018-07-19T09:40:31.686Z,50.70
2018-07-19T09:41:31.704Z,49.85
2018-07-19T09:42:31.728Z,49.80
2018-07-19T09:43:31.770Z,50.14
2018-07-19T09:44:31.761Z,49.68
2018-07-19T09:45:31.781Z,49.61
2018-07-19T09:46:31.799Z,49.61
2018-07-19T09:47:31.816Z,50.21
2018-07-19T09:48:31.834Z,50.04
2018-07-19T09:49:31.854Z,48.90
2018-07-19T09:50:31.875Z,50.85
2018-07-19T09:51:31.887Z,49.82
2018-07-19T09:52:31.905Z,49.71
2018-07-19T09:53:31.921Z,48.85
2018-07-19T09:54:31.957Z,48.09
2018-07-19T09:55:31.957Z,47.89
2018-07-19T09:56:31.973Z,46.65
2018-07-19T09:57:31.994Z,47.75
2018-07-19T09:58:32.011Z,49.99
2018-07-19T09:59:32.071Z,48.21
2018-07-19T10:00:32.052Z,47.38
2018-07-19T10:01:32.102Z,47.77
2018-07-19T10:02:32.094Z,46.28
2018-07-19T10:03:32.100Z,45.76
2018-07-19T10:04:32.117Z,47.92
2018-07-19T10:05:32.139Z,47.18
2018-07-19T10:06:32.157Z,46.77
2018-07-19T10:07:32.181Z,47.72
2018-07-19T10:08:32.190Z,47.87
2018-07-19T10:09:32.215Z,48.14
2018-07-19T10:10:32.233Z,46.80
2018-07-19T10:11:32.255Z,47.58
2018-07-19T10:12:32.270Z,48.09
2018-07-19T10:13:32.323Z,46.92
2018-07-19T10:14:32.308Z,45.76
2018-07-19T10:15:32.334Z,44.91
2018-07-19T10:16:32.344Z,46.08
2018-07-19T10:17:32.363Z,46.01
2018-07-19T10:18:32.373Z,44.49
2018-07-19T10:19:32.403Z,46.72
2018-07-19T10:20:32.418Z,47.65
2018-07-19T10:21:32.426Z,47.26
2018-07-19T10:22:32.446Z,46.06
2018-07-19T10:23:32.469Z,46.80
2018-07-19T10:24:32.486Z,47.28
2018-07-19T10:25:32.506Z,47.72
2018-07-19T10:26:32.568Z,45.72
2018-07-19T10:27:32.538Z,43.92
2018-07-19T10:28:32.579Z,45.04
2018-07-19T10:29:32.587Z,42.47
2018-07-19T10:30:32.637Z,43.72
2018-07-19T10:31:32.617Z,44.98
2018-07-19T10:32:32.699Z,44.87
2018-07-19T10:33:32.646Z,45.37
2018-07-19T10:34:32.672Z,44.87
2018-07-19T10:35:32.694Z,45.75
2018-07-19T10:36:32.704Z,46.41
2018-07-19T10:37:32.765Z,46.14
2018-07-19T10:38:32.748Z,43.48
2018-07-19T10:39:32.766Z,43.93
2018-07-19T10:40:32.818Z,47.48
2018-07-19T10:41:32.800Z,46.99
2018-07-19T10:42:32.820Z,46.88
2018-07-19T10:43:32.839Z,48.34
2018-07-19T10:44:32.852Z,47.17
2018-07-19T10:45:32.871Z,46.08
2018-07-19T10:46:32.894Z,42.78
2018-07-19T10:47:32.911Z,43.58
2018-07-19T10:48:32.928Z,43.43
2018-07-19T10:49:32.965Z,41.96
2018-07-19T10:50:32.963Z,41.09
2018-07-19T10:51:32.988Z,41.99
2018-07-19T10:52:33.001Z,44.15
2018-07-19T10:53:33.018Z,45.21
2018-07-19T10:54:33.039Z,42.90
2018-07-19T10:55:33.059Z,42.62
2018-07-19T10:56:33.075Z,44.56
2018-07-19T10:57:33.163Z,43.58
2018-07-19T10:58:33.113Z,42.46
2018-07-19T10:59:33.132Z,45.15
2018-07-19T11:00:33.148Z,44.06
2018-07-19T11:01:33.168Z,41.43
2018-07-19T11:02:33.185Z,41.25
2018-07-19T11:03:33.217Z,39.50
2018-07-19T11:04:33.226Z,41.61
2018-07-19T11:05:33.235Z,42.35
2018-07-19T11:06:33.271Z,43.31
2018-07-19T11:07:33.279Z,43.19
2018-07-19T11:08:33.306Z,45.86
2018-07-19T11:09:33.397Z,43.51
2018-07-19T11:10:33.338Z,44.05
2018-07-19T11:11:33.356Z,43.98
2018-07-19T11:12:33.381Z,42.90
2018-07-19T11:13:33.390Z,43.29
2018-07-19T11:14:33.416Z,41.70
2018-07-19T11:15:33.436Z,42.85
2018-07-19T11:16:33.459Z,44.94
2018-07-19T11:17:33.472Z,44.73
2018-07-19T11:18:33.487Z,47.58
2018-07-19T11:19:33.508Z,47.80
2018-07-19T11:20:33.527Z,45.26
2018-07-19T11:21:33.544Z,47.04
2018-07-19T11:22:33.566Z,47.48
2018-07-19T11:23:33.581Z,47.24
2018-07-19T11:24:33.603Z,47.41
2018-07-19T11:25:33.661Z,46.72
2018-07-19T11:26:33.631Z,44.48
2018-07-19T11:27:33.650Z,44.77
2018-07-19T11:28:33.664Z,45.06
2018-07-19T11:29:33.676Z,45.80
2018-07-19T11:30:33.701Z,47.53
2018-07-19T11:31:33.711Z,46.53
2018-07-19T11:32:33.729Z,46.78
2018-07-19T11:33:33.754Z,46.23
2018-07-19T11:34:33.762Z,45.84
2018-07-19T11:35:33.784Z,44.98
2018-07-19T11:36:33.799Z,45.50
2018-07-19T11:37:33.825Z,43.99
2018-07-19T11:38:33.845Z,42.62
2018-07-19T11:39:33.853Z,45.83
2018-07-19T11:40:33.876Z,43.27
2018-07-19T11:41:33.928Z,43.58
2018-07-19T11:42:33.903Z,43.60
2018-07-19T11:43:33.920Z,42.31
2018-07-19T11:44:33.945Z,43.63
2018-07-19T11:45:34.003Z,42.70
2018-07-19T11:46:33.970Z,43.52
2018-07-19T11:47:33.991Z,41.37
2018-07-19T11:48:34.009Z,38.37
2018-07-19T11:49:34.033Z,41.03
2018-07-19T11:50:34.043Z,42.45
2018-07-19T11:51:34.061Z,41.76
2018-07-19T11:52:34.079Z,40.47
2018-07-19T11:53:34.101Z,38.96
2018-07-19T11:54:34.112Z,41.37
2018-07-19T11:55:34.136Z,40.01
2018-07-19T11:56:34.149Z,40.16
2018-07-19T11:57:34.168Z,40.09
2018-07-19T11:58:34.200Z,41.77
2018-07-19T11:59:34.204Z,38.80
2018-07-19T12:00:34.224Z,37.98
2018-07-19T12:01:34.242Z,40.19
2018-07-19T12:02:34.299Z,44.37
2018-07-19T12:03:34.285Z,42.54
2018-07-19T12:04:34.302Z,43.93
2018-07-19T12:05:34.317Z,44.34
2018-07-19T12:06:34.340Z,44.71
2018-07-19T12:07:34.365Z,43.66
2018-07-19T12:08:34.372Z,42.11
2018-07-19T12:09:34.391Z,42.33
2018-07-19T12:10:34.413Z,40.82
2018-07-19T12:11:34.426Z,41.24
2018-07-19T12:12:34.445Z,40.00
2018-07-19T12:13:34.463Z,39.00
2018-07-19T12:14:34.482Z,37.07
2018-07-19T12:15:34.499Z,41.45
2018-07-19T12:16:34.526Z,40.31
2018-07-19T12:17:34.534Z,41.37
2018-07-19T12:18:34.555Z,42.41
2018-07-19T12:19:34.575Z,42.85
2018-07-19T12:20:34.590Z,43.79
2018-07-19T12:21:34.611Z,43.59
2018-07-19T12:22:34.632Z,44.35
2018-07-19T12:23:34.651Z,42.91
2018-07-19T12:24:34.664Z,43.79
2018-07-19T12:25:34.714Z,42.83
2018-07-19T12:26:34.704Z,42.81
2018-07-19T12:27:34.720Z,42.91
2018-07-19T12:28:34.737Z,45.75
2018-07-19T12:29:34.759Z,44.69
2018-07-19T12:30:34.771Z,43.10
2018-07-19T12:31:34.790Z,44.65
2018-07-19T12:32:34.807Z,43.95
2018-07-19T12:33:34.823Z,44.38
2018-07-19T12:34:34.835Z,45.84
2018-07-19T12:35:34.878Z,43.57
2018-07-19T12:36:34.872Z,44.12
2018-07-19T12:37:34.893Z,44.90
2018-07-19T12:38:34.906Z,45.64
2018-07-19T12:39:34.930Z,47.07
2018-07-19T12:40:34.941Z,48.05
2018-07-19T12:41:34.956Z,49.02
2018-07-19T12:42:34.978Z,48.93
2018-07-19T12:43:34.983Z,48.14
2018-07-19T12:44:35.003Z,47.49
2018-07-19T12:45:35.017Z,49.15
2018-07-19T12:46:35.024Z,48.39
2018-07-19T12:47:35.047Z,46.75
2018-07-19T12:48:35.058Z,46.46
2018-07-19T12:49:35.074Z,47.41
2018-07-19T12:50:35.085Z,47.41
2018-07-19T12:51:35.099Z,48.66
2018-07-19T12:52:35.107Z,49.95
2018-07-19T12:53:35.120Z,48.24
2018-07-19T12:54:35.135Z,47.53
2018-07-19T12:55:35.140Z,49.76
2018-07-19T12:56:35.150Z,50.36
2018-07-19T12:57:35.175Z,47.92
2018-07-19T12:58:35.173Z,49.58
2018-07-19T12:59:35.186Z,49.78
2018-07-19T13:00:35.191Z,49.32
2018-07-19T13:01:35.199Z,49.90
2018-07-19T13:02:35.208Z,48.63
2018-07-19T13:03:35.215Z,50.85
2018-07-19T13:04:35.231Z,49.88
2018-07-19T13:05:35.232Z,50.36
2018-07-19T13:06:35.239Z,52.87
2018-07-19T13:07:35.249Z,51.90
2018-07-19T13:08:35.255Z,52.77
2018-07-19T13:09:35.267Z,52.09
2018-07-19T13:10:35.271Z,51.51
2018-07-19T13:11:35.277Z,51.41
2018-07-19T13:12:35.285Z,51.87
2018-07-19T13:13:35.295Z,50.82
2018-07-19T13:14:35.300Z,50.73
2018-07-19T13:15:35.306Z,51.70
2018-07-19T13:16:35.318Z,51.19
2018-07-19T13:17:35.316Z,49.92
2018-07-19T13:18:35.328Z,50.80
2018-07-19T13:19:35.336Z,50.70
2018-07-19T13:20:35.341Z,49.83
2018-07-19T13:21:35.357Z,49.54
2018-07-19T13:22:35.359Z,49.34
2018-07-19T13:23:35.365Z,50.02
2018-07-19T13:24:35.368Z,50.60
2018-07-19T13:25:35.374Z,51.87
2018-07-19T13:26:35.385Z,51.67
2018-07-19T13:27:35.388Z,50.51
2018-07-19T13:28:35.393Z,51.48
2018-07-19T13:29:35.401Z,51.58
2018-07-19T13:30:35.407Z,49.73
2018-07-19T13:31:35.417Z,49.54
2018-07-19T13:32:35.420Z,53.65
2018-07-19T13:33:35.425Z,51.31
2018-07-19T13:34:35.442Z,49.37
2018-07-19T13:35:35.438Z,51.90
2018-07-19T13:36:35.449Z,51.61
2018-07-19T13:37:35.450Z,50.24
2018-07-19T13:38:35.455Z,50.12
2018-07-19T13:39:35.466Z,51.70
2018-07-19T13:40:35.469Z,51.09
2018-07-19T13:41:35.473Z,52.09
2018-07-19T13:42:35.537Z,49.44
2018-07-19T13:43:35.485Z,49.63
2018-07-19T13:44:35.492Z,51.55
2018-07-19T13:45:35.503Z,53.20
2018-07-19T13:46:35.504Z,52.62
2018-07-19T13:47:35.512Z,49.99
2018-07-19T13:48:35.516Z,52.04
2018-07-19T13:49:35.533Z,52.72
2018-07-19T13:50:35.541Z,52.94
2018-07-19T13:51:35.532Z,50.70
2018-07-19T13:52:35.538Z,49.54
2018-07-19T13:53:35.542Z,51.48
2018-07-19T13:54:35.552Z,50.14
2018-07-19T13:55:35.555Z,50.63
2018-07-19T13:56:35.558Z,52.09
2018-07-19T13:57:35.564Z,52.48
2018-07-19T13:58:35.568Z,49.83
2018-07-19T13:59:35.580Z,49.34
2018-07-19T14:00:35.582Z,49.05
2018-07-19T14:01:35.588Z,49.92
2018-07-19T14:02:35.592Z,49.63
2018-07-19T14:03:35.597Z,51.51
2018-07-19T14:04:35.600Z,51.70
2018-07-19T14:05:35.608Z,48.66
2018-07-19T14:06:35.625Z,49.34
2018-07-19T14:07:35.626Z,50.31
2018-07-19T14:08:35.624Z,50.51
2018-07-19T14:09:35.630Z,49.73